sensor_id;sensor_type;location;lat;lon;timestamp;P1;durP1;ratioP1;P2;durP2;ratioP2
42176;SDS011;28126;51.060;19.460;2022-10-16T00:01:50;8.70;;;7.80;;
42176;SDS011;28126;51.060;19.460;2022-10-16T00:04:52;10.08;;;7.08;;
42176;SDS011;28126;51.060;19.460;2022-10-16T00:07:55;9.78;;;7.97;;
42176;SDS011;28126;51.060;19.460;2022-10-16T00:11:04;9.75;;;7.58;;
42176;SDS011;28126;51.060;19.460;2022-10-16T00:14:13;8.85;;;7.37;;
42176;SDS011;28126;51.060;19.460;2022-10-16T00:17:14;8.13;;;6.87;;
42176;SDS011;28126;51.060;19.460;2022-10-16T00:20:16;9.88;;;7.45;;
42176;SDS011;28126;51.060;19.460;2022-10-16T00:23:18;8.53;;;7.17;;
42176;SDS011;28126;51.060;19.460;2022-10-16T00:26:20;8.40;;;6.75;;
42176;SDS011;28126;51.060;19.460;2022-10-16T00:29:23;8.03;;;6.97;;
42176;SDS011;28126;51.060;19.460;2022-10-16T00:32:24;8.88;;;7.05;;
42176;SDS011;28126;51.060;19.460;2022-10-16T00:35:26;7.45;;;6.45;;
42176;SDS011;28126;51.060;19.460;2022-10-16T00:38:28;9.33;;;7.08;;
42176;SDS011;28126;51.060;19.460;2022-10-16T00:41:30;9.10;;;7.37;;
42176;SDS011;28126;51.060;19.460;2022-10-16T00:47:53;8.53;;;7.15;;
42176;SDS011;28126;51.060;19.460;2022-10-16T00:50:57;10.25;;;7.35;;
42176;SDS011;28126;51.060;19.460;2022-10-16T00:54:01;7.50;;;6.65;;
42176;SDS011;28126;51.060;19.460;2022-10-16T00:57:05;8.60;;;6.78;;
42176;SDS011;28126;51.060;19.460;2022-10-16T01:00:09;8.55;;;7.45;;
42176;SDS011;28126;51.060;19.460;2022-10-16T01:03:30;7.22;;;6.37;;
42176;SDS011;28126;51.060;19.460;2022-10-16T01:13:31;7.87;;;6.85;;
42176;SDS011;28126;51.060;19.460;2022-10-16T01:27:03;6.90;;;6.20;;
42176;SDS011;28126;51.060;19.460;2022-10-16T01:30:16;7.62;;;6.37;;
42176;SDS011;28126;51.060;19.460;2022-10-16T01:33:28;10.08;;;6.22;;
42176;SDS011;28126;51.060;19.460;2022-10-16T01:36:38;8.88;;;6.90;;
42176;SDS011;28126;51.060;19.460;2022-10-16T01:39:44;6.83;;;5.80;;
42176;SDS011;28126;51.060;19.460;2022-10-16T01:42:50;7.85;;;6.28;;
42176;SDS011;28126;51.060;19.460;2022-10-16T01:45:55;7.23;;;6.50;;
42176;SDS011;28126;51.060;19.460;2022-10-16T01:48:58;6.97;;;5.95;;
42176;SDS011;28126;51.060;19.460;2022-10-16T01:52:04;6.85;;;5.97;;
42176;SDS011;28126;51.060;19.460;2022-10-16T01:55:09;7.27;;;6.40;;
42176;SDS011;28126;51.060;19.460;2022-10-16T01:58:16;7.58;;;6.00;;
42176;SDS011;28126;51.060;19.460;2022-10-16T02:01:18;6.58;;;5.87;;
42176;SDS011;28126;51.060;19.460;2022-10-16T02:04:29;6.95;;;6.12;;
42176;SDS011;28126;51.060;19.460;2022-10-16T02:07:37;6.92;;;5.95;;
42176;SDS011;28126;51.060;19.460;2022-10-16T02:10:39;6.87;;;6.17;;
42176;SDS011;28126;51.060;19.460;2022-10-16T02:13:45;7.95;;;6.33;;
42176;SDS011;28126;51.060;19.460;2022-10-16T02:16:51;7.37;;;6.35;;
42176;SDS011;28126;51.060;19.460;2022-10-16T02:19:53;7.47;;;6.67;;
42176;SDS011;28126;51.060;19.460;2022-10-16T02:22:57;8.55;;;5.78;;
42176;SDS011;28126;51.060;19.460;2022-10-16T02:26:00;7.62;;;6.10;;
42176;SDS011;28126;51.060;19.460;2022-10-16T02:29:07;8.13;;;5.92;;
42176;SDS011;28126;51.060;19.460;2022-10-16T02:32:12;7.03;;;5.47;;
42176;SDS011;28126;51.060;19.460;2022-10-16T02:35:17;6.92;;;6.22;;
42176;SDS011;28126;51.060;19.460;2022-10-16T02:38:21;6.75;;;6.00;;
42176;SDS011;28126;51.060;19.460;2022-10-16T02:41:25;7.05;;;5.90;;
42176;SDS011;28126;51.060;19.460;2022-10-16T02:44:27;7.70;;;5.97;;
42176;SDS011;28126;51.060;19.460;2022-10-16T02:47:28;7.33;;;6.17;;
42176;SDS011;28126;51.060;19.460;2022-10-16T02:50:29;6.80;;;5.83;;
42176;SDS011;28126;51.060;19.460;2022-10-16T02:53:31;6.30;;;5.42;;
42176;SDS011;28126;51.060;19.460;2022-10-16T02:56:32;6.87;;;6.17;;
42176;SDS011;28126;51.060;19.460;2022-10-16T02:59:34;6.10;;;5.50;;
42176;SDS011;28126;51.060;19.460;2022-10-16T03:02:35;6.50;;;5.80;;
42176;SDS011;28126;51.060;19.460;2022-10-16T03:05:36;6.50;;;5.87;;
42176;SDS011;28126;51.060;19.460;2022-10-16T03:08:38;6.47;;;5.78;;
42176;SDS011;28126;51.060;19.460;2022-10-16T03:11:39;6.95;;;6.25;;
42176;SDS011;28126;51.060;19.460;2022-10-16T03:14:41;6.35;;;5.50;;
42176;SDS011;28126;51.060;19.460;2022-10-16T03:17:42;8.33;;;5.58;;
42176;SDS011;28126;51.060;19.460;2022-10-16T03:20:44;6.22;;;5.53;;
42176;SDS011;28126;51.060;19.460;2022-10-16T03:23:46;6.42;;;5.70;;
42176;SDS011;28126;51.060;19.460;2022-10-16T03:26:47;8.18;;;6.20;;
42176;SDS011;28126;51.060;19.460;2022-10-16T03:29:49;8.50;;;5.65;;
42176;SDS011;28126;51.060;19.460;2022-10-16T03:32:51;6.35;;;5.25;;
42176;SDS011;28126;51.060;19.460;2022-10-16T03:35:54;6.22;;;5.60;;
42176;SDS011;28126;51.060;19.460;2022-10-16T03:38:56;9.33;;;6.15;;
42176;SDS011;28126;51.060;19.460;2022-10-16T03:41:57;7.22;;;5.83;;
42176;SDS011;28126;51.060;19.460;2022-10-16T03:44:58;7.37;;;5.95;;
42176;SDS011;28126;51.060;19.460;2022-10-16T03:48:00;6.37;;;5.28;;
42176;SDS011;28126;51.060;19.460;2022-10-16T03:51:03;6.75;;;5.87;;
42176;SDS011;28126;51.060;19.460;2022-10-16T03:54:05;6.62;;;5.92;;
42176;SDS011;28126;51.060;19.460;2022-10-16T03:57:07;6.72;;;6.00;;
42176;SDS011;28126;51.060;19.460;2022-10-16T04:00:10;6.35;;;5.75;;
42176;SDS011;28126;51.060;19.460;2022-10-16T04:03:13;6.28;;;5.67;;
42176;SDS011;28126;51.060;19.460;2022-10-16T04:06:15;6.45;;;5.50;;
42176;SDS011;28126;51.060;19.460;2022-10-16T04:09:16;7.75;;;5.72;;
42176;SDS011;28126;51.060;19.460;2022-10-16T04:12:18;6.65;;;5.90;;
42176;SDS011;28126;51.060;19.460;2022-10-16T04:15:19;6.65;;;5.72;;
42176;SDS011;28126;51.060;19.460;2022-10-16T04:18:21;6.97;;;6.28;;
42176;SDS011;28126;51.060;19.460;2022-10-16T04:21:22;6.75;;;6.05;;
42176;SDS011;28126;51.060;19.460;2022-10-16T04:24:24;7.30;;;5.12;;
42176;SDS011;28126;51.060;19.460;2022-10-16T04:27:25;8.00;;;6.20;;
42176;SDS011;28126;51.060;19.460;2022-10-16T04:30:27;7.60;;;5.55;;
42176;SDS011;28126;51.060;19.460;2022-10-16T04:33:29;7.37;;;5.70;;
42176;SDS011;28126;51.060;19.460;2022-10-16T04:36:30;8.00;;;5.92;;
42176;SDS011;28126;51.060;19.460;2022-10-16T04:39:31;8.65;;;6.08;;
42176;SDS011;28126;51.060;19.460;2022-10-16T04:42:33;7.08;;;6.28;;
42176;SDS011;28126;51.060;19.460;2022-10-16T04:45:34;6.92;;;6.22;;
42176;SDS011;28126;51.060;19.460;2022-10-16T04:48:35;6.87;;;6.15;;
42176;SDS011;28126;51.060;19.460;2022-10-16T04:51:37;7.05;;;6.10;;
42176;SDS011;28126;51.060;19.460;2022-10-16T04:54:38;7.10;;;6.22;;
42176;SDS011;28126;51.060;19.460;2022-10-16T04:57:40;6.67;;;5.75;;
42176;SDS011;28126;51.060;19.460;2022-10-16T05:00:41;7.87;;;6.17;;
42176;SDS011;28126;51.060;19.460;2022-10-16T05:03:43;7.75;;;6.12;;
42176;SDS011;28126;51.060;19.460;2022-10-16T05:06:44;7.42;;;6.17;;
42176;SDS011;28126;51.060;19.460;2022-10-16T05:09:47;6.62;;;5.92;;
42176;SDS011;28126;51.060;19.460;2022-10-16T05:12:48;7.35;;;6.58;;
42176;SDS011;28126;51.060;19.460;2022-10-16T05:15:50;7.58;;;6.78;;
42176;SDS011;28126;51.060;19.460;2022-10-16T05:18:52;8.28;;;6.95;;
42176;SDS011;28126;51.060;19.460;2022-10-16T05:21:54;7.45;;;6.65;;
42176;SDS011;28126;51.060;19.460;2022-10-16T05:24:56;8.13;;;6.50;;
42176;SDS011;28126;51.060;19.460;2022-10-16T05:27:58;7.37;;;6.62;;
42176;SDS011;28126;51.060;19.460;2022-10-16T05:30:59;8.08;;;7.00;;
42176;SDS011;28126;51.060;19.460;2022-10-16T05:34:10;8.48;;;6.53;;
42176;SDS011;28126;51.060;19.460;2022-10-16T05:37:12;7.85;;;6.10;;
42176;SDS011;28126;51.060;19.460;2022-10-16T05:40:13;7.80;;;6.80;;
42176;SDS011;28126;51.060;19.460;2022-10-16T05:43:16;7.42;;;6.65;;
42176;SDS011;28126;51.060;19.460;2022-10-16T05:46:18;7.08;;;6.37;;
42176;SDS011;28126;51.060;19.460;2022-10-16T05:49:20;8.35;;;6.87;;
42176;SDS011;28126;51.060;19.460;2022-10-16T05:52:21;12.47;;;7.00;;
42176;SDS011;28126;51.060;19.460;2022-10-16T05:55:23;8.28;;;6.15;;
42176;SDS011;28126;51.060;19.460;2022-10-16T05:58:25;7.85;;;6.80;;
42176;SDS011;28126;51.060;19.460;2022-10-16T06:01:30;7.80;;;6.35;;
42176;SDS011;28126;51.060;19.460;2022-10-16T06:04:32;7.72;;;6.30;;
42176;SDS011;28126;51.060;19.460;2022-10-16T06:07:35;6.78;;;5.95;;
42176;SDS011;28126;51.060;19.460;2022-10-16T06:10:37;9.08;;;6.53;;
42176;SDS011;28126;51.060;19.460;2022-10-16T06:13:38;10.38;;;6.85;;
42176;SDS011;28126;51.060;19.460;2022-10-16T06:16:42;7.80;;;6.55;;
42176;SDS011;28126;51.060;19.460;2022-10-16T06:19:43;8.33;;;6.75;;
42176;SDS011;28126;51.060;19.460;2022-10-16T06:22:45;7.40;;;6.60;;
42176;SDS011;28126;51.060;19.460;2022-10-16T06:25:46;7.65;;;5.90;;
42176;SDS011;28126;51.060;19.460;2022-10-16T06:28:48;8.75;;;6.50;;
42176;SDS011;28126;51.060;19.460;2022-10-16T06:31:50;10.25;;;7.70;;
42176;SDS011;28126;51.060;19.460;2022-10-16T06:34:51;10.30;;;7.30;;
42176;SDS011;28126;51.060;19.460;2022-10-16T06:37:53;9.90;;;8.13;;
42176;SDS011;28126;51.060;19.460;2022-10-16T06:40:54;10.35;;;7.55;;
